sensor_id;sensor_type;location;lat;lon;timestamp;P1;durP1;ratioP1;P2;durP2;ratioP2
14209;SDS011;7188;56.070;12.698;2023-02-27T00:00:55;2.77;;;0.80;;
14209;SDS011;7188;56.070;12.698;2023-02-27T00:03:23;1.70;;;1.23;;
14209;SDS011;7188;56.070;12.698;2023-02-27T00:05:48;3.20;;;0.53;;
14209;SDS011;7188;56.070;12.698;2023-02-27T00:08:14;2.57;;;0.77;;
14209;SDS011;7188;56.070;12.698;2023-02-27T00:10:40;2.27;;;0.70;;
14209;SDS011;7188;56.070;12.698;2023-02-27T00:13:05;1.80;;;0.50;;
14209;SDS011;7188;56.070;12.698;2023-02-27T00:15:31;2.43;;;0.63;;
14209;SDS011;7188;56.070;12.698;2023-02-27T00:20:53;3.23;;;0.60;;
14209;SDS011;7188;56.070;12.698;2023-02-27T00:23:18;2.33;;;0.70;;
14209;SDS011;7188;56.070;12.698;2023-02-27T00:25:44;3.90;;;0.70;;
14209;SDS011;7188;56.070;12.698;2023-02-27T00:28:10;4.00;;;0.80;;
14209;SDS011;7188;56.070;12.698;2023-02-27T00:30:36;1.73;;;0.70;;
14209;SDS011;7188;56.070;12.698;2023-02-27T00:33:01;2.20;;;0.53;;
14209;SDS011;7188;56.070;12.698;2023-02-27T00:35:29;2.17;;;0.60;;
14209;SDS011;7188;56.070;12.698;2023-02-27T00:37:54;3.03;;;0.80;;
14209;SDS011;7188;56.070;12.698;2023-02-27T00:40:23;2.17;;;0.60;;
14209;SDS011;7188;56.070;12.698;2023-02-27T00:42:51;2.53;;;1.17;;
14209;SDS011;7188;56.070;12.698;2023-02-27T00:45:17;2.40;;;0.90;;
14209;SDS011;7188;56.070;12.698;2023-02-27T00:47:45;3.00;;;0.60;;
14209;SDS011;7188;56.070;12.698;2023-02-27T00:50:11;0.73;;;0.40;;
14209;SDS011;7188;56.070;12.698;2023-02-27T00:52:38;5.70;;;0.67;;
14209;SDS011;7188;56.070;12.698;2023-02-27T00:55:04;1.70;;;0.47;;
14209;SDS011;7188;56.070;12.698;2023-02-27T00:57:30;2.37;;;0.70;;
14209;SDS011;7188;56.070;12.698;2023-02-27T00:59:56;3.07;;;0.60;;
14209;SDS011;7188;56.070;12.698;2023-02-27T01:02:22;2.50;;;0.70;;
14209;SDS011;7188;56.070;12.698;2023-02-27T01:04:48;1.67;;;0.40;;
14209;SDS011;7188;56.070;12.698;2023-02-27T01:07:30;1.90;;;0.50;;
14209;SDS011;7188;56.070;12.698;2023-02-27T01:09:55;7.60;;;0.70;;
14209;SDS011;7188;56.070;12.698;2023-02-27T01:12:21;2.33;;;0.63;;
14209;SDS011;7188;56.070;12.698;2023-02-27T01:14:47;5.17;;;0.60;;
14209;SDS011;7188;56.070;12.698;2023-02-27T01:17:13;3.30;;;0.40;;
14209;SDS011;7188;56.070;12.698;2023-02-27T01:19:39;0.70;;;0.70;;
14209;SDS011;7188;56.070;12.698;2023-02-27T01:22:04;2.17;;;0.60;;
14209;SDS011;7188;56.070;12.698;2023-02-27T01:24:30;2.67;;;0.57;;
14209;SDS011;7188;56.070;12.698;2023-02-27T01:26:57;3.33;;;0.50;;
14209;SDS011;7188;56.070;12.698;2023-02-27T01:29:22;1.70;;;0.50;;
14209;SDS011;7188;56.070;12.698;2023-02-27T01:31:48;1.73;;;0.60;;
14209;SDS011;7188;56.070;12.698;2023-02-27T01:34:14;1.60;;;0.60;;
14209;SDS011;7188;56.070;12.698;2023-02-27T01:36:41;2.50;;;0.73;;
14209;SDS011;7188;56.070;12.698;2023-02-27T01:39:07;0.87;;;0.57;;
14209;SDS011;7188;56.070;12.698;2023-02-27T01:41:33;3.30;;;0.50;;
14209;SDS011;7188;56.070;12.698;2023-02-27T01:46:29;1.73;;;0.67;;
14209;SDS011;7188;56.070;12.698;2023-02-27T01:49:17;2.03;;;0.50;;
14209;SDS011;7188;56.070;12.698;2023-02-27T01:51:52;2.37;;;0.50;;
14209;SDS011;7188;56.070;12.698;2023-02-27T01:54:26;1.00;;;0.53;;
14209;SDS011;7188;56.070;12.698;2023-02-27T01:56:52;0.73;;;0.50;;
14209;SDS011;7188;56.070;12.698;2023-02-27T01:59:17;1.70;;;0.67;;
14209;SDS011;7188;56.070;12.698;2023-02-27T02:01:45;1.47;;;0.60;;
14209;SDS011;7188;56.070;12.698;2023-02-27T02:04:13;2.37;;;0.50;;
14209;SDS011;7188;56.070;12.698;2023-02-27T02:06:53;3.80;;;0.60;;
14209;SDS011;7188;56.070;12.698;2023-02-27T02:09:28;1.40;;;0.60;;
14209;SDS011;7188;56.070;12.698;2023-02-27T02:11:56;4.40;;;0.90;;
14209;SDS011;7188;56.070;12.698;2023-02-27T02:14:23;2.03;;;0.77;;
14209;SDS011;7188;56.070;12.698;2023-02-27T02:19:33;4.40;;;0.97;;
14209;SDS011;7188;56.070;12.698;2023-02-27T02:50:26;1.10;;;0.40;;
14209;SDS011;7188;56.070;12.698;2023-02-27T02:56:09;1.00;;;0.60;;
14209;SDS011;7188;56.070;12.698;2023-02-27T02:59:32;4.73;;;0.90;;
14209;SDS011;7188;56.070;12.698;2023-02-27T03:01:54;2.67;;;0.53;;
14209;SDS011;7188;56.070;12.698;2023-02-27T03:04:34;1.53;;;0.50;;
14209;SDS011;7188;56.070;12.698;2023-02-27T03:07:32;5.63;;;0.90;;
14209;SDS011;7188;56.070;12.698;2023-02-27T03:12:38;3.80;;;0.97;;
14209;SDS011;7188;56.070;12.698;2023-02-27T03:15:10;3.57;;;1.10;;
14209;SDS011;7188;56.070;12.698;2023-02-27T03:17:54;0.80;;;0.60;;
14209;SDS011;7188;56.070;12.698;2023-02-27T03:20:44;4.23;;;0.60;;
14209;SDS011;7188;56.070;12.698;2023-02-27T03:23:18;0.63;;;0.53;;
14209;SDS011;7188;56.070;12.698;2023-02-27T03:25:50;4.80;;;0.67;;
14209;SDS011;7188;56.070;12.698;2023-02-27T03:28:18;2.00;;;0.77;;
14209;SDS011;7188;56.070;12.698;2023-02-27T03:30:50;2.33;;;0.50;;
14209;SDS011;7188;56.070;12.698;2023-02-27T03:33:51;2.97;;;0.60;;
14209;SDS011;7188;56.070;12.698;2023-02-27T03:44:31;3.80;;;0.70;;
14209;SDS011;7188;56.070;12.698;2023-02-27T03:47:06;1.97;;;0.80;;
14209;SDS011;7188;56.070;12.698;2023-02-27T03:49:31;3.53;;;0.80;;
14209;SDS011;7188;56.070;12.698;2023-02-27T03:51:57;2.67;;;0.80;;
14209;SDS011;7188;56.070;12.698;2023-02-27T03:54:26;2.63;;;0.90;;
14209;SDS011;7188;56.070;12.698;2023-02-27T03:57:04;3.30;;;0.70;;
14209;SDS011;7188;56.070;12.698;2023-02-27T03:59:31;3.73;;;1.00;;
14209;SDS011;7188;56.070;12.698;2023-02-27T04:01:58;3.33;;;0.70;;
14209;SDS011;7188;56.070;12.698;2023-02-27T04:04:26;1.97;;;0.70;;
14209;SDS011;7188;56.070;12.698;2023-02-27T04:07:00;3.07;;;0.67;;
14209;SDS011;7188;56.070;12.698;2023-02-27T04:20:43;0.90;;;0.60;;
14209;SDS011;7188;56.070;12.698;2023-02-27T04:32:11;1.10;;;0.50;;
14209;SDS011;7188;56.070;12.698;2023-02-27T04:34:50;0.97;;;0.87;;
14209;SDS011;7188;56.070;12.698;2023-02-27T04:37:23;0.60;;;0.60;;
14209;SDS011;7188;56.070;12.698;2023-02-27T04:40:05;5.10;;;0.73;;
14209;SDS011;7188;56.070;12.698;2023-02-27T04:42:34;0.83;;;0.57;;
14209;SDS011;7188;56.070;12.698;2023-02-27T04:45:05;1.93;;;0.60;;
14209;SDS011;7188;56.070;12.698;2023-02-27T04:47:37;4.00;;;0.90;;
14209;SDS011;7188;56.070;12.698;2023-02-27T04:50:09;1.57;;;0.63;;
14209;SDS011;7188;56.070;12.698;2023-02-27T04:52:42;2.07;;;1.13;;
14209;SDS011;7188;56.070;12.698;2023-02-27T04:55:21;4.33;;;0.80;;
14209;SDS011;7188;56.070;12.698;2023-02-27T05:00:22;2.37;;;1.20;;
14209;SDS011;7188;56.070;12.698;2023-02-27T05:03:11;2.20;;;1.10;;
14209;SDS011;7188;56.070;12.698;2023-02-27T05:05:38;3.93;;;0.80;;
14209;SDS011;7188;56.070;12.698;2023-02-27T05:11:30;2.50;;;1.20;;
14209;SDS011;7188;56.070;12.698;2023-02-27T05:14:12;4.57;;;1.13;;
14209;SDS011;7188;56.070;12.698;2023-02-27T05:16:49;8.93;;;1.67;;
14209;SDS011;7188;56.070;12.698;2023-02-27T05:19:20;4.37;;;1.20;;
14209;SDS011;7188;56.070;12.698;2023-02-27T05:21:49;4.00;;;1.00;;
14209;SDS011;7188;56.070;12.698;2023-02-27T05:24:27;1.67;;;1.00;;
14209;SDS011;7188;56.070;12.698;2023-02-27T05:27:15;1.17;;;0.70;;
14209;SDS011;7188;56.070;12.698;2023-02-27T05:29:57;3.13;;;1.30;;
14209;SDS011;7188;56.070;12.698;2023-02-27T05:32:30;3.00;;;0.90;;
14209;SDS011;7188;56.070;12.698;2023-02-27T05:38:35;4.43;;;1.03;;
14209;SDS011;7188;56.070;12.698;2023-02-27T05:40:52;1.00;;;1.00;;
14209;SDS011;7188;56.070;12.698;2023-02-27T05:43:24;5.60;;;1.20;;
14209;SDS011;7188;56.070;12.698;2023-02-27T05:45:55;1.50;;;0.80;;
14209;SDS011;7188;56.070;12.698;2023-02-27T05:48:33;4.47;;;1.00;;
14209;SDS011;7188;56.070;12.698;2023-02-27T05:51:02;2.53;;;1.03;;
14209;SDS011;7188;56.070;12.698;2023-02-27T05:53:32;1.13;;;0.80;;
14209;SDS011;7188;56.070;12.698;2023-02-27T05:56:04;5.27;;;1.47;;
14209;SDS011;7188;56.070;12.698;2023-02-27T05:58:37;2.93;;;1.00;;
14209;SDS011;7188;56.070;12.698;2023-02-27T06:01:15;4.17;;;1.20;;
14209;SDS011;7188;56.070;12.698;2023-02-27T06:03:40;2.43;;;0.90;;
14209;SDS011;7188;56.070;12.698;2023-02-27T06:06:08;5.30;;;1.30;;
14209;SDS011;7188;56.070;12.698;2023-02-27T06:08:37;3.23;;;1.00;;
14209;SDS011;7188;56.070;12.698;2023-02-27T06:11:04;3.27;;;0.80;;
14209;SDS011;7188;56.070;12.698;2023-02-27T06:13:30;2.57;;;1.00;;
14209;SDS011;7188;56.070;12.698;2023-02-27T06:15:56;2.93;;;1.17;;
14209;SDS011;7188;56.070;12.698;2023-02-27T06:18:21;2.93;;;1.17;;
14209;SDS011;7188;56.070;12.698;2023-02-27T06:20:47;3.27;;;1.10;;
14209;SDS011;7188;56.070;12.698;2023-02-27T06:23:13;3.53;;;1.13;;
14209;SDS011;7188;56.070;12.698;2023-02-27T06:25:39;2.10;;;1.00;;
14209;SDS011;7188;56.070;12.698;2023-02-27T06:28:06;9.33;;;1.57;;
14209;SDS011;7188;56.070;12.698;2023-02-27T06:30:33;4.20;;;1.13;;
14209;SDS011;7188;56.070;12.698;2023-02-27T06:32:59;5.57;;;1.57;;
14209;SDS011;7188;56.070;12.698;2023-02-27T06:35:25;3.40;;;1.40;;
14209;SDS011;7188;56.070;12.698;2023-02-27T06:37:53;4.10;;;1.40;;
14209;SDS011;7188;56.070;12.698;2023-02-27T06:40:20;3.63;;;1.47;;
14209;SDS011;7188;56.070;12.698;2023-02-27T06:42:46;3.63;;;1.70;;
14209;SDS011;7188;56.070;12.698;2023-02-27T06:45:12;5.87;;;1.40;;
14209;SDS011;7188;56.070;12.698;2023-02-27T06:47:39;6.53;;;1.57;;
14209;SDS011;7188;56.070;12.698;2023-02-27T06:50:06;4.83;;;2.00;;
14209;SDS011;7188;56.070;12.698;2023-02-27T06:52:32;7.03;;;1.80;;
14209;SDS011;7188;56.070;12.698;2023-02-27T06:54:58;3.70;;;2.17;;
14209;SDS011;7188;56.070;12.698;2023-02-27T06:57:24;10.30;;;2.73;;
14209;SDS011;7188;56.070;12.698;2023-02-27T06:59:50;6.63;;;3.00;;
14209;SDS011;7188;56.070;12.698;2023-02-27T07:02:16;9.13;;;2.30;;
14209;SDS011;7188;56.070;12.698;2023-02-27T07:04:42;5.73;;;2.40;;
14209;SDS011;7188;56.070;12.698;2023-02-27T07:07:08;7.90;;;2.07;;
14209;SDS011;7188;56.070;12.698;2023-02-27T07:09:34;6.40;;;2.83;;
14209;SDS011;7188;56.070;12.698;2023-02-27T07:12:02;12.27;;;3.03;;
14209;SDS011;7188;56.070;12.698;2023-02-27T07:14:29;5.20;;;2.93;;
14209;SDS011;7188;56.070;12.698;2023-02-27T07:16:55;10.40;;;3.07;;
14209;SDS011;7188;56.070;12.698;2023-02-27T07:19:21;12.90;;;3.77;;
14209;SDS011;7188;56.070;12.698;2023-02-27T07:21:47;16.87;;;3.10;;
14209;SDS011;7188;56.070;12.698;2023-02-27T07:24:14;5.70;;;3.17;;
14209;SDS011;7188;56.070;12.698;2023-02-27T07:26:39;6.67;;;3.13;;
14209;SDS011;7188;56.070;12.698;2023-02-27T07:29:05;7.70;;;3.23;;
14209;SDS011;7188;56.070;12.698;2023-02-27T07:31:31;8.20;;;3.23;;
14209;SDS011;7188;56.070;12.698;2023-02-27T07:33:57;7.40;;;3.00;;
14209;SDS011;7188;56.070;12.698;2023-02-27T07:36:23;7.27;;;3.40;;
14209;SDS011;7188;56.070;12.698;2023-02-27T07:38:49;6.53;;;2.90;;
14209;SDS011;7188;56.070;12.698;2023-02-27T07:41:14;5.47;;;2.70;;
14209;SDS011;7188;56.070;12.698;2023-02-27T07:43:40;5.23;;;3.00;;
14209;SDS011;7188;56.070;12.698;2023-02-27T07:46:06;7.40;;;2.63;;
14209;SDS011;7188;56.070;12.698;2023-02-27T07:48:32;4.30;;;2.57;;
14209;SDS011;7188;56.070;12.698;2023-02-27T07:50:58;3.80;;;2.00;;
14209;SDS011;7188;56.070;12.698;2023-02-27T07:53:24;8.13;;;3.10;;
14209;SDS011;7188;56.070;12.698;2023-02-27T07:55:49;12.60;;;3.30;;
14209;SDS011;7188;56.070;12.698;2023-02-27T07:58:16;7.40;;;3.50;;
14209;SDS011;7188;56.070;12.698;2023-02-27T08:00:42;6.57;;;2.90;;
14209;SDS011;7188;56.070;12.698;2023-02-27T08:03:08;8.97;;;3.27;;
14209;SDS011;7188;56.070;12.698;2023-02-27T08:05:34;7.00;;;2.47;;
14209;SDS011;7188;56.070;12.698;2023-02-27T08:08:00;11.67;;;4.07;;
14209;SDS011;7188;56.070;12.698;2023-02-27T08:10:26;11.93;;;3.63;;
14209;SDS011;7188;56.070;12.698;2023-02-27T08:12:51;9.60;;;3.80;;
14209;SDS011;7188;56.070;12.698;2023-02-27T08:15:18;5.60;;;3.10;;
14209;SDS011;7188;56.070;12.698;2023-02-27T08:17:44;6.20;;;3.10;;
14209;SDS011;7188;56.070;12.698;2023-02-27T08:20:11;8.57;;;3.07;;
14209;SDS011;7188;56.070;12.698;2023-02-27T08:22:39;6.20;;;2.30;;
14209;SDS011;7188;56.070;12.698;2023-02-27T08:25:07;8.10;;;2.30;;
14209;SDS011;7188;56.070;12.698;2023-02-27T08:27:36;11.27;;;2.07;;
14209;SDS011;7188;56.070;12.698;2023-02-27T08:30:05;9.57;;;2.30;;
14209;SDS011;7188;56.070;12.698;2023-02-27T08:32:33;5.77;;;1.47;;
14209;SDS011;7188;56.070;12.698;2023-02-27T08:34:58;6.50;;;1.87;;
14209;SDS011;7188;56.070;12.698;2023-02-27T08:37:24;7.20;;;1.63;;
14209;SDS011;7188;56.070;12.698;2023-02-27T08:39:50;9.77;;;2.00;;
14209;SDS011;7188;56.070;12.698;2023-02-27T08:42:15;5.77;;;1.70;;
14209;SDS011;7188;56.070;12.698;2023-02-27T08:44:42;3.33;;;2.10;;
14209;SDS011;7188;56.070;12.698;2023-02-27T08:47:08;8.80;;;2.23;;
14209;SDS011;7188;56.070;12.698;2023-02-27T08:49:34;9.87;;;2.37;;
14209;SDS011;7188;56.070;12.698;2023-02-27T08:51:59;9.40;;;2.30;;
14209;SDS011;7188;56.070;12.698;2023-02-27T08:54:25;2.63;;;1.23;;
14209;SDS011;7188;56.070;12.698;2023-02-27T08:56:52;8.13;;;2.13;;
14209;SDS011;7188;56.070;12.698;2023-02-27T08:59:17;5.10;;;1.93;;
14209;SDS011;7188;56.070;12.698;2023-02-27T09:01:43;4.67;;;2.27;;
14209;SDS011;7188;56.070;12.698;2023-02-27T09:04:10;11.03;;;2.47;;
14209;SDS011;7188;56.070;12.698;2023-02-27T09:06:36;8.57;;;1.97;;
14209;SDS011;7188;56.070;12.698;2023-02-27T09:09:02;7.57;;;2.17;;
14209;SDS011;7188;56.070;12.698;2023-02-27T09:11:29;10.73;;;2.77;;
14209;SDS011;7188;56.070;12.698;2023-02-27T09:13:54;6.53;;;1.93;;
14209;SDS011;7188;56.070;12.698;2023-02-27T09:16:21;7.70;;;2.40;;
14209;SDS011;7188;56.070;12.698;2023-02-27T09:18:47;5.60;;;1.40;;
14209;SDS011;7188;56.070;12.698;2023-02-27T09:21:13;7.40;;;2.00;;
14209;SDS011;7188;56.070;12.698;2023-02-27T09:23:40;7.20;;;1.73;;
14209;SDS011;7188;56.070;12.698;2023-02-27T09:26:06;5.67;;;1.73;;
14209;SDS011;7188;56.070;12.698;2023-02-27T09:28:33;6.27;;;1.70;;
14209;SDS011;7188;56.070;12.698;2023-02-27T09:31:03;5.37;;;1.37;;
14209;SDS011;7188;56.070;12.698;2023-02-27T09:33:30;6.13;;;1.90;;
14209;SDS011;7188;56.070;12.698;2023-02-27T09:35:57;4.93;;;1.60;;
14209;SDS011;7188;56.070;12.698;2023-02-27T09:38:23;9.90;;;2.40;;
14209;SDS011;7188;56.070;12.698;2023-02-27T09:40:49;13.23;;;1.83;;
14209;SDS011;7188;56.070;12.698;2023-02-27T09:43:39;9.27;;;2.30;;
14209;SDS011;7188;56.070;12.698;2023-02-27T09:46:20;2.50;;;1.40;;
14209;SDS011;7188;56.070;12.698;2023-02-27T09:48:52;6.57;;;1.30;;
14209;SDS011;7188;56.070;12.698;2023-02-27T09:51:22;12.87;;;1.97;;
14209;SDS011;7188;56.070;12.698;2023-02-27T09:53:49;6.30;;;1.77;;
14209;SDS011;7188;56.070;12.698;2023-02-27T09:56:28;8.57;;;1.90;;
14209;SDS011;7188;56.070;12.698;2023-02-27T10:04:35;8.77;;;1.90;;
14209;SDS011;7188;56.070;12.698;2023-02-27T10:07:12;5.20;;;2.07;;
14209;SDS011;7188;56.070;12.698;2023-02-27T10:09:42;9.27;;;2.00;;
14209;SDS011;7188;56.070;12.698;2023-02-27T10:15:15;8.17;;;1.63;;
14209;SDS011;7188;56.070;12.698;2023-02-27T10:17:59;7.17;;;1.90;;
14209;SDS011;7188;56.070;12.698;2023-02-27T10:20:29;5.53;;;1.00;;
14209;SDS011;7188;56.070;12.698;2023-02-27T10:22:59;5.20;;;1.30;;
14209;SDS011;7188;56.070;12.698;2023-02-27T10:25:39;3.57;;;1.63;;
14209;SDS011;7188;56.070;12.698;2023-02-27T10:28:19;7.70;;;1.60;;
14209;SDS011;7188;56.070;12.698;2023-02-27T10:30:47;9.13;;;1.53;;
14209;SDS011;7188;56.070;12.698;2023-02-27T10:33:31;5.47;;;1.30;;
14209;SDS011;7188;56.070;12.698;2023-02-27T10:35:58;7.33;;;1.27;;
14209;SDS011;7188;56.070;12.698;2023-02-27T10:38:31;6.50;;;1.20;;
14209;SDS011;7188;56.070;12.698;2023-02-27T10:41:15;5.67;;;1.17;;
14209;SDS011;7188;56.070;12.698;2023-02-27T10:43:43;6.53;;;1.53;;
14209;SDS011;7188;56.070;12.698;2023-02-27T10:46:20;4.97;;;1.30;;
14209;SDS011;7188;56.070;12.698;2023-02-27T10:48:56;7.47;;;1.53;;
14209;SDS011;7188;56.070;12.698;2023-02-27T10:51:28;6.03;;;1.03;;
14209;SDS011;7188;56.070;12.698;2023-02-27T10:56:44;4.67;;;1.10;;
14209;SDS011;7188;56.070;12.698;2023-02-27T10:59:27;4.80;;;1.43;;
14209;SDS011;7188;56.070;12.698;2023-02-27T11:02:05;3.70;;;0.90;;
14209;SDS011;7188;56.070;12.698;2023-02-27T11:04:49;2.53;;;1.37;;
14209;SDS011;7188;56.070;12.698;2023-02-27T11:07:53;7.40;;;1.30;;
14209;SDS011;7188;56.070;12.698;2023-02-27T11:12:38;6.10;;;1.27;;
14209;SDS011;7188;56.070;12.698;2023-02-27T11:17:40;6.83;;;0.90;;
14209;SDS011;7188;56.070;12.698;2023-02-27T11:23:01;5.70;;;1.53;;
14209;SDS011;7188;56.070;12.698;2023-02-27T11:25:36;3.73;;;1.20;;
14209;SDS011;7188;56.070;12.698;2023-02-27T11:31:04;6.07;;;2.00;;
14209;SDS011;7188;56.070;12.698;2023-02-27T11:33:50;5.73;;;1.40;;
14209;SDS011;7188;56.070;12.698;2023-02-27T11:36:18;5.33;;;1.00;;
14209;SDS011;7188;56.070;12.698;2023-02-27T11:38:53;5.73;;;1.27;;
14209;SDS011;7188;56.070;12.698;2023-02-27T11:41:28;4.10;;;1.40;;
14209;SDS011;7188;56.070;12.698;2023-02-27T11:43:56;3.27;;;1.00;;
14209;SDS011;7188;56.070;12.698;2023-02-27T11:46:24;5.93;;;1.20;;
14209;SDS011;7188;56.070;12.698;2023-02-27T11:48:52;5.90;;;1.40;;
14209;SDS011;7188;56.070;12.698;2023-02-27T11:54:17;9.17;;;1.93;;
14209;SDS011;7188;56.070;12.698;2023-02-27T11:57:01;5.63;;;1.40;;
14209;SDS011;7188;56.070;12.698;2023-02-27T12:02:29;6.67;;;1.50;;
14209;SDS011;7188;56.070;12.698;2023-02-27T12:05:29;4.63;;;1.33;;
14209;SDS011;7188;56.070;12.698;2023-02-27T12:13:56;6.33;;;1.47;;
14209;SDS011;7188;56.070;12.698;2023-02-27T12:16:40;12.13;;;2.27;;
14209;SDS011;7188;56.070;12.698;2023-02-27T12:19:20;7.00;;;1.60;;
14209;SDS011;7188;56.070;12.698;2023-02-27T12:21:54;5.17;;;1.10;;
14209;SDS011;7188;56.070;12.698;2023-02-27T12:24:43;4.50;;;1.50;;
14209;SDS011;7188;56.070;12.698;2023-02-27T12:27:21;2.93;;;1.60;;
14209;SDS011;7188;56.070;12.698;2023-02-27T12:32:53;4.93;;;1.13;;
14209;SDS011;7188;56.070;12.698;2023-02-27T12:35:40;2.83;;;0.73;;
14209;SDS011;7188;56.070;12.698;2023-02-27T12:38:10;4.10;;;0.87;;
14209;SDS011;7188;56.070;12.698;2023-02-27T12:40:42;7.73;;;0.87;;
14209;SDS011;7188;56.070;12.698;2023-02-27T12:57:27;5.07;;;1.13;;
14209;SDS011;7188;56.070;12.698;2023-02-27T13:00:16;0.83;;;0.40;;
14209;SDS011;7188;56.070;12.698;2023-02-27T13:05:52;3.83;;;0.97;;
14209;SDS011;7188;56.070;12.698;2023-02-27T13:11:24;3.43;;;1.03;;
14209;SDS011;7188;56.070;12.698;2023-02-27T13:14:05;0.63;;;0.60;;
14209;SDS011;7188;56.070;12.698;2023-02-27T13:21:54;2.87;;;0.60;;
14209;SDS011;7188;56.070;12.698;2023-02-27T13:24:30;2.63;;;0.60;;
14209;SDS011;7188;56.070;12.698;2023-02-27T13:32:30;1.37;;;0.57;;
14209;SDS011;7188;56.070;12.698;2023-02-27T13:38:01;1.10;;;0.67;;
14209;SDS011;7188;56.070;12.698;2023-02-27T13:40:43;2.30;;;0.50;;
14209;SDS011;7188;56.070;12.698;2023-02-27T13:43:28;1.17;;;0.30;;
14209;SDS011;7188;56.070;12.698;2023-02-27T13:46:00;2.60;;;0.80;;
14209;SDS011;7188;56.070;12.698;2023-02-27T13:48:46;3.23;;;0.67;;
14209;SDS011;7188;56.070;12.698;2023-02-27T13:56:47;5.00;;;1.40;;
14209;SDS011;7188;56.070;12.698;2023-02-27T14:04:35;2.47;;;1.80;;
14209;SDS011;7188;56.070;12.698;2023-02-27T14:07:05;3.50;;;1.30;;
14209;SDS011;7188;56.070;12.698;2023-02-27T14:09:36;2.40;;;1.20;;
14209;SDS011;7188;56.070;12.698;2023-02-27T14:12:05;1.10;;;1.00;;
14209;SDS011;7188;56.070;12.698;2023-02-27T14:14:51;1.30;;;0.67;;
14209;SDS011;7188;56.070;12.698;2023-02-27T14:20:04;3.20;;;1.00;;
14209;SDS011;7188;56.070;12.698;2023-02-27T14:30:17;5.03;;;0.80;;
14209;SDS011;7188;56.070;12.698;2023-02-27T14:32:54;2.00;;;0.50;;
14209;SDS011;7188;56.070;12.698;2023-02-27T14:35:25;0.67;;;0.63;;
14209;SDS011;7188;56.070;12.698;2023-02-27T14:37:53;1.27;;;0.70;;
14209;SDS011;7188;56.070;12.698;2023-02-27T14:40:20;5.83;;;0.73;;
14209;SDS011;7188;56.070;12.698;2023-02-27T14:45:53;2.53;;;0.70;;
14209;SDS011;7188;56.070;12.698;2023-02-27T14:48:23;2.47;;;0.70;;
14209;SDS011;7188;56.070;12.698;2023-02-27T14:50:52;5.33;;;0.67;;
14209;SDS011;7188;56.070;12.698;2023-02-27T14:53:21;1.17;;;0.60;;
14209;SDS011;7188;56.070;12.698;2023-02-27T14:55:54;1.27;;;0.73;;
14209;SDS011;7188;56.070;12.698;2023-02-27T14:58:22;2.73;;;0.80;;
14209;SDS011;7188;56.070;12.698;2023-02-27T15:03:50;3.40;;;0.80;;
14209;SDS011;7188;56.070;12.698;2023-02-27T15:06:30;1.40;;;1.07;;
14209;SDS011;7188;56.070;12.698;2023-02-27T15:09:07;6.50;;;0.90;;
14209;SDS011;7188;56.070;12.698;2023-02-27T15:11:42;0.80;;;0.60;;
14209;SDS011;7188;56.070;12.698;2023-02-27T15:14:07;2.40;;;0.70;;
14209;SDS011;7188;56.070;12.698;2023-02-27T15:16:42;4.07;;;1.50;;
14209;SDS011;7188;56.070;12.698;2023-02-27T15:19:22;3.13;;;0.77;;
14209;SDS011;7188;56.070;12.698;2023-02-27T15:22:15;0.73;;;0.60;;
14209;SDS011;7188;56.070;12.698;2023-02-27T15:24:44;1.57;;;0.93;;
14209;SDS011;7188;56.070;12.698;2023-02-27T15:27:14;1.30;;;0.80;;
14209;SDS011;7188;56.070;12.698;2023-02-27T15:29:43;1.93;;;0.70;;
14209;SDS011;7188;56.070;12.698;2023-02-27T15:32:25;1.83;;;0.53;;
14209;SDS011;7188;56.070;12.698;2023-02-27T15:34:56;2.73;;;0.63;;
14209;SDS011;7188;56.070;12.698;2023-02-27T15:37:29;4.10;;;0.60;;
14209;SDS011;7188;56.070;12.698;2023-02-27T15:39:57;2.30;;;0.73;;
14209;SDS011;7188;56.070;12.698;2023-02-27T15:42:26;2.63;;;0.80;;
14209;SDS011;7188;56.070;12.698;2023-02-27T15:44:59;1.93;;;0.90;;
14209;SDS011;7188;56.070;12.698;2023-02-27T15:47:27;6.07;;;1.10;;
14209;SDS011;7188;56.070;12.698;2023-02-27T15:49:59;3.13;;;0.77;;
14209;SDS011;7188;56.070;12.698;2023-02-27T15:52:40;1.50;;;1.10;;
14209;SDS011;7188;56.070;12.698;2023-02-27T15:55:12;2.57;;;0.77;;
14209;SDS011;7188;56.070;12.698;2023-02-27T15:57:41;2.67;;;0.87;;
14209;SDS011;7188;56.070;12.698;2023-02-27T16:00:08;3.40;;;0.90;;
14209;SDS011;7188;56.070;12.698;2023-02-27T16:05:13;1.40;;;0.87;;
14209;SDS011;7188;56.070;12.698;2023-02-27T16:07:43;1.57;;;1.10;;
14209;SDS011;7188;56.070;12.698;2023-02-27T16:10:16;5.50;;;1.67;;
14209;SDS011;7188;56.070;12.698;2023-02-27T16:12:55;7.03;;;1.20;;
14209;SDS011;7188;56.070;12.698;2023-02-27T16:15:33;4.47;;;1.00;;
14209;SDS011;7188;56.070;12.698;2023-02-27T16:26:00;1.23;;;0.67;;
14209;SDS011;7188;56.070;12.698;2023-02-27T16:28:44;2.23;;;0.80;;
14209;SDS011;7188;56.070;12.698;2023-02-27T16:31:33;2.10;;;0.90;;
14209;SDS011;7188;56.070;12.698;2023-02-27T16:34:02;2.17;;;1.30;;
14209;SDS011;7188;56.070;12.698;2023-02-27T16:36:41;1.57;;;1.00;;
14209;SDS011;7188;56.070;12.698;2023-02-27T16:39:26;2.13;;;1.33;;
14209;SDS011;7188;56.070;12.698;2023-02-27T16:41:52;1.40;;;1.30;;
14209;SDS011;7188;56.070;12.698;2023-02-27T16:44:18;1.50;;;1.23;;
14209;SDS011;7188;56.070;12.698;2023-02-27T16:46:45;2.17;;;1.43;;
14209;SDS011;7188;56.070;12.698;2023-02-27T16:49:21;3.30;;;1.53;;
14209;SDS011;7188;56.070;12.698;2023-02-27T16:51:49;1.30;;;1.00;;
14209;SDS011;7188;56.070;12.698;2023-02-27T16:54:14;4.83;;;1.43;;
14209;SDS011;7188;56.070;12.698;2023-02-27T16:56:40;5.17;;;1.37;;
14209;SDS011;7188;56.070;12.698;2023-02-27T17:01:58;2.67;;;1.87;;
14209;SDS011;7188;56.070;12.698;2023-02-27T17:04:25;3.37;;;1.40;;
14209;SDS011;7188;56.070;12.698;2023-02-27T17:06:53;3.53;;;2.37;;
14209;SDS011;7188;56.070;12.698;2023-02-27T17:09:20;5.90;;;1.87;;
14209;SDS011;7188;56.070;12.698;2023-02-27T17:11:46;3.40;;;1.70;;
14209;SDS011;7188;56.070;12.698;2023-02-27T17:14:13;4.23;;;1.93;;
14209;SDS011;7188;56.070;12.698;2023-02-27T17:16:38;2.00;;;1.80;;
14209;SDS011;7188;56.070;12.698;2023-02-27T17:19:04;6.30;;;2.30;;
14209;SDS011;7188;56.070;12.698;2023-02-27T17:21:30;5.23;;;2.13;;
14209;SDS011;7188;56.070;12.698;2023-02-27T17:23:55;4.13;;;1.80;;
14209;SDS011;7188;56.070;12.698;2023-02-27T17:26:21;2.80;;;1.47;;
14209;SDS011;7188;56.070;12.698;2023-02-27T17:28:47;3.23;;;1.87;;
14209;SDS011;7188;56.070;12.698;2023-02-27T17:31:13;4.63;;;1.63;;
14209;SDS011;7188;56.070;12.698;2023-02-27T17:33:40;2.50;;;1.93;;
14209;SDS011;7188;56.070;12.698;2023-02-27T17:36:07;5.03;;;1.50;;
14209;SDS011;7188;56.070;12.698;2023-02-27T17:38:34;4.47;;;1.90;;
14209;SDS011;7188;56.070;12.698;2023-02-27T17:41:08;2.10;;;1.63;;
14209;SDS011;7188;56.070;12.698;2023-02-27T17:43:35;6.07;;;1.97;;
14209;SDS011;7188;56.070;12.698;2023-02-27T17:46:07;2.87;;;1.70;;
14209;SDS011;7188;56.070;12.698;2023-02-27T17:48:35;3.77;;;1.77;;
14209;SDS011;7188;56.070;12.698;2023-02-27T17:51:06;3.10;;;1.77;;
14209;SDS011;7188;56.070;12.698;2023-02-27T17:53:48;3.47;;;1.80;;
14209;SDS011;7188;56.070;12.698;2023-02-27T17:56:13;3.77;;;1.47;;
14209;SDS011;7188;56.070;12.698;2023-02-27T17:58:39;2.00;;;1.57;;
14209;SDS011;7188;56.070;12.698;2023-02-27T18:01:10;1.33;;;1.23;;
14209;SDS011;7188;56.070;12.698;2023-02-27T18:03:39;2.40;;;1.83;;
14209;SDS011;7188;56.070;12.698;2023-02-27T18:06:05;4.10;;;2.13;;
14209;SDS011;7188;56.070;12.698;2023-02-27T18:08:31;5.97;;;1.87;;
14209;SDS011;7188;56.070;12.698;2023-02-27T18:10:58;7.67;;;1.90;;
14209;SDS011;7188;56.070;12.698;2023-02-27T18:13:24;4.87;;;2.40;;
14209;SDS011;7188;56.070;12.698;2023-02-27T18:15:51;3.47;;;1.53;;
14209;SDS011;7188;56.070;12.698;2023-02-27T18:18:19;5.40;;;1.90;;
14209;SDS011;7188;56.070;12.698;2023-02-27T18:20:45;4.20;;;2.10;;